Time;durP1;ratioP1;P1;durP2;ratioP2;P2;SDS_P1;SDS_P2;PMS_P1;PMS_P2;Temp;Humidity;BMP_temperature;BMP_pressure;BME280_temperature;BME280_humidity;BME280_pressure;Samples;Min_cycle;Max_cycle;Signal;HPM_P1;HPM_P2
2022/08/21 00:02:21;;;;;;;9.70;4.78;;;14.80;99.90;;;;;;5066784;28;20081;-73
2022/08/21 00:04:47;;;;;;;6.43;5.10;;;14.90;99.90;;;;;;5050013;28;20064;-74
2022/08/21 00:07:13;;;;;;;11.52;6.18;;;14.90;99.90;;;;;;5066678;28;20041;-73
2022/08/21 00:09:39;;;;;;;15.70;5.50;;;14.90;99.90;;;;;;5067050;28;20028;-73
2022/08/21 00:12:05;;;;;;;8.98;4.57;;;15.00;99.90;;;;;;5066997;28;20045;-74
2022/08/21 00:14:32;;;;;;;11.23;5.30;;;15.00;99.90;;;;;;5067385;28;20045;-74
2022/08/21 00:16:58;;;;;;;7.55;5.18;;;14.80;99.90;;;;;;5068480;28;20559;-74
2022/08/21 00:19:24;;;;;;;12.60;6.35;;;14.70;99.90;;;;;;5049287;28;20036;-73
2022/08/21 00:21:51;;;;;;;11.02;4.97;;;14.60;99.90;;;;;;5068464;28;20049;-73
2022/08/21 00:24:18;;;;;;;7.13;4.75;;;14.70;99.90;;;;;;5064778;28;20045;-73
2022/08/21 00:26:44;;;;;;;8.27;5.07;;;14.90;99.90;;;;;;5047899;28;20119;-73
2022/08/21 00:29:09;;;;;;;11.23;6.20;;;14.90;99.90;;;;;;5054889;28;20048;-72
2022/08/21 00:31:36;;;;;;;10.05;5.72;;;15.00;99.90;;;;;;5050404;28;20036;-72
2022/08/21 00:34:02;;;;;;;11.95;6.47;;;14.90;99.90;;;;;;5065949;28;20041;-72
2022/08/21 00:36:29;;;;;;;15.73;6.78;;;14.80;99.90;;;;;;5068053;28;20076;-72
2022/08/21 00:38:54;;;;;;;9.80;4.97;;;14.90;99.90;;;;;;5067581;28;20251;-73
2022/08/21 00:41:22;;;;;;;10.15;5.45;;;14.90;99.90;;;;;;5066120;28;20041;-72
2022/08/21 00:43:49;;;;;;;10.93;4.95;;;14.80;99.90;;;;;;5049463;28;20056;-73
2022/08/21 00:46:15;;;;;;;11.52;6.65;;;14.80;99.90;;;;;;5065876;28;20079;-73
2022/08/21 00:48:40;;;;;;;9.57;4.68;;;14.80;99.90;;;;;;5067344;28;20090;-72
2022/08/21 00:51:25;;;;;;;9.40;5.05;;;14.90;99.90;;;;;;5067594;28;20437;-73
2022/08/21 00:53:55;;;;;;;9.48;5.60;;;14.90;99.90;;;;;;5066264;28;20101;-72
2022/08/21 00:56:23;;;;;;;8.10;5.13;;;14.90;99.90;;;;;;5047866;28;20077;-73
2022/08/21 00:58:51;;;;;;;11.00;6.32;;;14.90;99.90;;;;;;5046916;28;20071;-72
2022/08/21 01:01:17;;;;;;;11.32;5.47;;;14.90;99.90;;;;;;5038082;28;20048;-73
2022/08/21 01:03:43;;;;;;;15.70;6.35;;;14.80;99.90;;;;;;5049000;28;20037;-73
2022/08/21 01:06:09;;;;;;;10.07;4.80;;;14.70;99.90;;;;;;5064813;28;20127;-73
2022/08/21 01:08:35;;;;;;;9.68;5.10;;;14.70;99.90;;;;;;5067165;28;20025;-73
2022/08/21 01:11:02;;;;;;;8.00;5.90;;;14.60;99.90;;;;;;5067910;28;20044;-73
2022/08/21 01:13:31;;;;;;;9.75;5.20;;;14.70;99.90;;;;;;5063372;28;20062;-73
2022/08/21 01:15:59;;;;;;;9.65;5.85;;;14.80;99.90;;;;;;5066324;28;20044;-73
2022/08/21 01:18:25;;;;;;;9.48;5.45;;;14.70;99.90;;;;;;5065953;28;20154;-72
2022/08/21 01:21:12;;;;;;;12.80;6.70;;;14.90;99.90;;;;;;5048025;28;20094;-72
2022/08/21 01:23:40;;;;;;;13.98;5.43;;;14.70;99.90;;;;;;5066715;28;20182;-72
2022/08/21 01:26:07;;;;;;;9.43;6.47;;;14.80;99.90;;;;;;5064575;28;20078;-73
2022/08/21 01:28:37;;;;;;;13.20;7.05;;;14.80;99.90;;;;;;5064811;28;20395;-73
2022/08/21 01:31:06;;;;;;;6.50;5.53;;;14.70;99.90;;;;;;5067127;28;20050;-73
2022/08/21 01:33:31;;;;;;;9.60;5.95;;;14.70;99.90;;;;;;5064755;28;20059;-73
2022/08/21 01:35:57;;;;;;;13.07;7.10;;;14.70;99.90;;;;;;5063123;28;20045;-72
2022/08/21 01:38:24;;;;;;;8.85;6.13;;;14.70;99.90;;;;;;5065003;28;20145;-73
2022/08/21 01:40:50;;;;;;;11.45;7.00;;;14.70;99.90;;;;;;5065433;28;20592;-73
2022/08/21 01:43:15;;;;;;;16.10;6.65;;;14.70;99.90;;;;;;5059055;23;20057;-73
2022/08/21 01:45:41;;;;;;;6.97;4.88;;;14.80;99.90;;;;;;5045823;28;20118;-72
2022/08/21 01:48:06;;;;;;;9.82;6.00;;;14.70;99.90;;;;;;5020633;28;20060;-73
2022/08/21 01:50:32;;;;;;;9.27;6.25;;;14.60;99.90;;;;;;5047426;28;20507;-72
2022/08/21 01:52:58;;;;;;;11.38;5.90;;;14.60;99.90;;;;;;5045145;28;20041;-73
2022/08/21 01:55:24;;;;;;;16.50;5.85;;;14.70;99.90;;;;;;5046700;28;20380;-73
2022/08/21 01:57:50;;;;;;;11.43;7.43;;;14.60;99.90;;;;;;5042155;28;20077;-73
2022/08/21 02:00:18;;;;;;;7.90;6.35;;;14.50;99.90;;;;;;5028917;28;20072;-73
2022/08/21 02:02:44;;;;;;;10.98;6.10;;;14.40;99.90;;;;;;5043994;28;20037;-72
2022/08/21 02:05:12;;;;;;;12.45;6.80;;;14.50;99.90;;;;;;5046236;28;20495;-73
2022/08/21 02:07:40;;;;;;;9.98;6.35;;;14.50;99.90;;;;;;5046862;28;20061;-72
2022/08/21 02:10:07;;;;;;;13.07;6.93;;;14.50;99.90;;;;;;5045263;28;20099;-73
2022/08/21 02:12:33;;;;;;;17.48;6.47;;;14.50;99.90;;;;;;5044821;28;20044;-73
2022/08/21 02:15:00;;;;;;;9.35;6.72;;;14.50;99.90;;;;;;5044992;28;20060;-73
2022/08/21 02:17:26;;;;;;;18.25;8.30;;;14.50;99.90;;;;;;5045033;28;20048;-72
2022/08/21 02:19:52;;;;;;;11.05;6.70;;;14.40;99.90;;;;;;5046427;28;20040;-73
2022/08/21 02:22:17;;;;;;;10.60;8.15;;;14.50;99.90;;;;;;5045342;28;20049;-73
2022/08/21 02:24:43;;;;;;;16.38;7.70;;;14.50;99.90;;;;;;5045893;28;20415;-73
2022/08/21 02:27:09;;;;;;;8.73;6.15;;;14.50;99.90;;;;;;5027699;28;20128;-73
2022/08/21 02:29:35;;;;;;;12.32;5.95;;;14.60;99.90;;;;;;5045460;28;20044;-74
2022/08/21 02:32:00;;;;;;;12.52;7.35;;;14.60;99.90;;;;;;5045997;28;20037;-72
2022/08/21 02:34:26;;;;;;;18.88;8.02;;;14.60;99.90;;;;;;5044999;28;20163;-74
2022/08/21 02:36:52;;;;;;;9.90;6.18;;;14.50;99.90;;;;;;5045534;28;20041;-72
2022/08/21 02:39:17;;;;;;;8.95;5.68;;;14.60;99.90;;;;;;5046074;28;20193;-72
2022/08/21 02:41:43;;;;;;;8.98;6.97;;;14.60;99.90;;;;;;5044959;28;20701;-72
2022/08/21 02:44:09;;;;;;;15.65;8.52;;;14.40;99.90;;;;;;5026048;28;20048;-73
2022/08/21 02:46:34;;;;;;;9.65;7.50;;;14.60;99.90;;;;;;5044481;28;20083;-75
2022/08/21 02:49:00;;;;;;;12.02;6.15;;;14.40;99.90;;;;;;5043803;28;20044;-73
2022/08/21 02:51:26;;;;;;;12.65;6.97;;;14.30;99.90;;;;;;5049442;28;20041;-73
2022/08/21 02:53:52;;;;;;;9.80;6.95;;;14.20;99.90;;;;;;5049929;28;20044;-73
2022/08/21 02:56:21;;;;;;;11.23;7.32;;;14.20;99.90;;;;;;5048999;28;20045;-73
2022/08/21 02:58:50;;;;;;;16.65;7.78;;;14.10;99.90;;;;;;5033711;28;20059;-73
2022/08/21 03:01:17;;;;;;;17.13;7.65;;;14.10;99.90;;;;;;5038739;28;20407;-73
2022/08/21 03:03:46;;;;;;;10.15;7.20;;;14.10;99.90;;;;;;5048728;28;20037;-73
2022/08/21 03:06:14;;;;;;;17.42;8.00;;;14.10;99.90;;;;;;5031420;28;20135;-73
2022/08/21 03:08:41;;;;;;;13.80;7.13;;;14.10;99.90;;;;;;5049374;28;20076;-74
2022/08/21 03:11:07;;;;;;;14.27;7.78;;;14.00;99.90;;;;;;5049027;28;20090;-74
2022/08/21 03:13:33;;;;;;;11.80;7.13;;;14.00;99.90;;;;;;5049280;28;20045;-73
2022/08/21 03:15:59;;;;;;;11.65;6.93;;;14.00;99.90;;;;;;5049247;28;20041;-72
2022/08/21 03:18:25;;;;;;;12.15;7.53;;;13.90;99.90;;;;;;5048218;28;20060;-72
2022/08/21 03:20:51;;;;;;;11.95;7.78;;;14.00;99.90;;;;;;5031136;28;20048;-73
2022/08/21 03:23:17;;;;;;;9.98;7.43;;;13.90;99.90;;;;;;5031124;28;20045;-73
2022/08/21 03:25:45;;;;;;;14.05;8.57;;;13.90;99.90;;;;;;5049404;28;20067;-73
2022/08/21 03:28:14;;;;;;;11.85;8.68;;;13.90;99.90;;;;;;5047945;28;20439;-72
2022/08/21 03:30:41;;;;;;;10.30;8.47;;;14.00;99.90;;;;;;5049187;28;20041;-73
2022/08/21 03:33:07;;;;;;;11.73;7.80;;;13.90;99.90;;;;;;5046732;28;20304;-74
2022/08/21 03:35:33;;;;;;;9.63;7.13;;;13.90;99.90;;;;;;5041475;28;20056;-73
2022/08/21 03:37:59;;;;;;;14.73;6.80;;;14.00;99.90;;;;;;5042965;28;20167;-73
2022/08/21 03:40:24;;;;;;;8.20;7.20;;;14.00;99.90;;;;;;5048275;28;20214;-73
2022/08/21 03:42:50;;;;;;;11.15;6.88;;;14.10;99.90;;;;;;5046717;28;20053;-73
2022/08/21 03:45:18;;;;;;;11.45;7.55;;;14.10;99.90;;;;;;5048413;28;20559;-73
2022/08/21 03:47:55;;;;;;;12.10;8.07;;;14.10;99.90;;;;;;5048510;28;20044;-73
2022/08/21 03:50:21;;;;;;;12.15;7.05;;;14.10;99.90;;;;;;5031406;28;20045;-73
2022/08/21 03:52:47;;;;;;;8.40;6.55;;;14.00;99.90;;;;;;5047332;28;21090;-73
2022/08/21 03:55:13;;;;;;;12.57;8.95;;;14.10;99.90;;;;;;5048853;28;20037;-73
2022/08/21 03:57:38;;;;;;;16.15;8.43;;;14.10;99.90;;;;;;5013071;28;20045;-72
2022/08/21 04:00:07;;;;;;;15.52;8.48;;;14.10;99.90;;;;;;5048372;28;20041;-73
2022/08/21 04:02:33;;;;;;;11.98;8.18;;;14.10;99.90;;;;;;5043762;28;20049;-73
2022/08/21 04:04:58;;;;;;;13.68;7.88;;;14.20;99.90;;;;;;5028916;28;20124;-74
2022/08/21 04:07:24;;;;;;;9.57;7.70;;;14.10;99.90;;;;;;5035151;28;20644;-73
2022/08/21 04:09:50;;;;;;;15.32;10.25;;;14.10;99.90;;;;;;5049003;28;20693;-73
2022/08/21 04:12:16;;;;;;;16.30;9.00;;;14.20;99.90;;;;;;5047168;28;20045;-73
2022/08/21 04:14:41;;;;;;;14.98;7.78;;;14.10;99.90;;;;;;5027027;28;20079;-73
2022/08/21 04:17:07;;;;;;;10.80;7.82;;;14.20;99.90;;;;;;5040168;28;20036;-72
2022/08/21 04:19:33;;;;;;;12.93;7.65;;;14.20;99.90;;;;;;5049141;28;20033;-73
2022/08/21 04:21:58;;;;;;;12.30;8.15;;;14.20;99.90;;;;;;5029520;28;20045;-73
2022/08/21 04:24:24;;;;;;;13.20;7.40;;;14.30;99.90;;;;;;5047086;28;20077;-73
2022/08/21 04:26:50;;;;;;;11.32;8.50;;;14.20;99.90;;;;;;5029164;28;20076;-74
2022/08/21 04:29:15;;;;;;;12.63;8.63;;;14.10;99.90;;;;;;5047592;28;20111;-73
2022/08/21 04:31:43;;;;;;;10.63;7.35;;;14.10;99.90;;;;;;5048177;28;20403;-72
2022/08/21 04:34:09;;;;;;;11.75;7.82;;;14.20;99.90;;;;;;5045897;28;20041;-72
2022/08/21 04:36:35;;;;;;;14.60;8.15;;;14.20;99.90;;;;;;5046526;28;20437;-73
2022/08/21 04:39:01;;;;;;;13.52;9.13;;;14.20;99.90;;;;;;5030593;28;20044;-73
2022/08/21 04:41:27;;;;;;;8.50;6.72;;;14.20;99.90;;;;;;5046695;28;20496;-73
2022/08/21 04:43:54;;;;;;;11.07;8.77;;;14.20;99.90;;;;;;5029018;28;20052;-73
2022/08/21 04:46:21;;;;;;;14.45;8.88;;;14.20;99.90;;;;;;5047160;28;20048;-73
2022/08/21 04:48:46;;;;;;;11.05;7.60;;;14.30;99.90;;;;;;5046169;28;20186;-73
2022/08/21 04:51:19;;;;;;;13.00;8.45;;;14.30;99.90;;;;;;5046824;28;20127;-73
2022/08/21 04:53:55;;;;;;;10.68;7.25;;;14.30;99.90;;;;;;5047284;28;20049;-73
2022/08/21 04:56:42;;;;;;;13.07;7.40;;;14.10;99.90;;;;;;5028057;28;20076;-73
2022/08/21 04:59:16;;;;;;;11.90;7.18;;;14.20;99.90;;;;;;5046747;28;20053;-73
2022/08/21 05:01:43;;;;;;;12.88;7.18;;;14.30;99.90;;;;;;5047834;28;20040;-74
2022/08/21 05:04:12;;;;;;;10.05;7.03;;;14.30;99.90;;;;;;5030727;28;20045;-73
2022/08/21 05:06:41;;;;;;;13.10;8.00;;;14.20;99.90;;;;;;5012937;28;20076;-73
2022/08/21 05:09:09;;;;;;;9.93;7.97;;;14.30;99.90;;;;;;5047301;28;20080;-73
2022/08/21 05:11:36;;;;;;;10.60;6.18;;;14.40;99.90;;;;;;5036289;28;20132;-73
2022/08/21 05:14:02;;;;;;;17.10;7.10;;;14.40;99.90;;;;;;5045204;28;20049;-72
2022/08/21 05:16:28;;;;;;;10.40;6.40;;;14.40;99.90;;;;;;5045619;28;20814;-73
2022/08/21 05:18:53;;;;;;;15.32;8.13;;;14.30;99.90;;;;;;5046645;28;20101;-73
2022/08/21 05:21:20;;;;;;;10.05;5.88;;;14.30;99.90;;;;;;5045726;28;20705;-73
2022/08/21 05:23:46;;;;;;;11.63;7.55;;;14.40;99.90;;;;;;5046633;28;20609;-73
2022/08/21 05:26:12;;;;;;;22.02;8.82;;;14.50;99.90;;;;;;5045872;28;20127;-73
2022/08/21 05:28:37;;;;;;;11.73;6.40;;;14.60;99.90;;;;;;5045444;28;20160;-73
2022/08/21 05:31:03;;;;;;;11.02;7.43;;;14.70;99.90;;;;;;5047580;28;20123;-73
2022/08/21 05:33:29;;;;;;;23.90;8.20;;;14.60;99.90;;;;;;5042994;28;20037;-73
2022/08/21 05:35:58;;;;;;;14.82;5.40;;;14.70;99.90;;;;;;5046160;28;20499;-73
2022/08/21 05:38:27;;;;;;;13.95;7.40;;;14.80;99.90;;;;;;5043408;28;20128;-72
2022/08/21 05:40:53;;;;;;;12.45;7.20;;;14.80;99.90;;;;;;5046374;28;20449;-73
2022/08/21 05:43:19;;;;;;;14.93;6.20;;;14.90;99.90;;;;;;5044491;28;20071;-72
2022/08/21 05:45:45;;;;;;;11.07;6.82;;;15.00;99.90;;;;;;5047038;28;20123;-72
2022/08/21 05:48:20;;;;;;;11.65;6.50;;;15.10;99.90;;;;;;5045139;28;20406;-73
2022/08/21 05:50:47;;;;;;;13.93;5.85;;;15.10;99.90;;;;;;5028909;28;20053;-73
2022/08/21 05:53:15;;;;;;;14.77;5.90;;;15.20;99.90;;;;;;5037224;28;20099;-72
2022/08/21 05:55:41;;;;;;;11.60;6.25;;;15.30;99.90;;;;;;5026525;28;20124;-73
2022/08/21 05:58:07;;;;;;;13.80;7.72;;;15.30;99.90;;;;;;5007915;28;20167;-73
2022/08/21 06:00:33;;;;;;;22.17;8.48;;;15.30;99.90;;;;;;5027318;28;20125;-73
2022/08/21 06:02:58;;;;;;;10.15;6.05;;;15.40;99.90;;;;;;5026173;28;20052;-73
2022/08/21 06:05:24;;;;;;;11.75;6.10;;;15.50;99.90;;;;;;5043818;28;20218;-74
2022/08/21 06:07:51;;;;;;;13.35;6.30;;;15.50;99.90;;;;;;5045544;28;20132;-72
2022/08/21 06:10:16;;;;;;;13.93;7.07;;;15.60;99.90;;;;;;5046032;28;20045;-74
2022/08/21 06:12:42;;;;;;;16.00;6.90;;;15.60;99.90;;;;;;5044414;28;20107;-73
2022/08/21 06:15:08;;;;;;;12.02;6.72;;;15.60;99.90;;;;;;5027344;28;20060;-73
2022/08/21 06:17:34;;;;;;;11.70;5.38;;;15.80;99.90;;;;;;5046723;28;20124;-72
2022/08/21 06:20:00;;;;;;;17.08;6.25;;;15.90;99.90;;;;;;5046645;28;20116;-80
2022/08/21 06:22:26;;;;;;;12.43;6.32;;;15.90;99.90;;;;;;5044732;28;20041;-82
2022/08/21 06:24:52;;;;;;;9.82;5.68;;;16.20;99.90;;;;;;5044985;28;20053;-83
2022/08/21 06:27:17;;;;;;;19.55;5.88;;;16.10;99.90;;;;;;5026235;28;20427;-82
2022/08/21 06:29:44;;;;;;;10.10;5.78;;;16.20;99.90;;;;;;5032974;28;20146;-83
2022/08/21 06:32:12;;;;;;;12.55;5.05;;;16.40;99.90;;;;;;5045313;28;20045;-81
2022/08/21 06:34:39;;;;;;;12.60;6.10;;;16.40;99.90;;;;;;5044813;28;20041;-83
2022/08/21 06:37:05;;;;;;;12.95;5.93;;;16.40;99.90;;;;;;5041262;28;20180;-82
2022/08/21 06:39:32;;;;;;;11.32;5.13;;;16.50;99.90;;;;;;5041643;28;20462;-85
2022/08/21 06:41:58;;;;;;;10.85;5.47;;;16.50;99.90;;;;;;5043354;28;20071;-82
2022/08/21 06:44:23;;;;;;;9.20;5.13;;;16.70;99.90;;;;;;5025301;28;20115;-83
2022/08/21 06:46:49;;;;;;;15.43;5.20;;;16.70;99.90;;;;;;5046730;28;20415;-83
2022/08/21 06:49:15;;;;;;;9.27;4.50;;;16.80;99.90;;;;;;5028030;28;20044;-82
2022/08/21 06:51:40;;;;;;;12.73;5.13;;;17.10;99.90;;;;;;5044697;28;20040;-83
2022/08/21 06:54:06;;;;;;;8.02;3.95;;;17.20;99.90;;;;;;5027004;28;20053;-82
2022/08/21 06:56:33;;;;;;;12.60;4.32;;;17.40;99.90;;;;;;5044543;28;20041;-83
2022/08/21 06:58:59;;;;;;;8.05;3.78;;;17.70;99.90;;;;;;5012308;28;20415;-82
2022/08/21 07:01:26;;;;;;;8.43;4.50;;;17.80;99.90;;;;;;5045620;28;20075;-82
2022/08/21 07:03:52;;;;;;;8.48;4.65;;;17.90;99.90;;;;;;5046018;28;20076;-82
2022/08/21 07:06:18;;;;;;;8.80;2.90;;;18.10;99.90;;;;;;5044995;28;20084;-83
2022/08/21 07:08:44;;;;;;;11.60;3.78;;;18.10;99.90;;;;;;5046780;28;20052;-82
2022/08/21 07:11:23;;;;;;;12.15;4.07;;;17.90;99.90;;;;;;5047100;28;20049;-83
2022/08/21 07:13:51;;;;;;;13.30;3.03;;;18.80;99.90;;;;;;5043690;28;20171;-83
2022/08/21 07:16:17;;;;;;;8.85;2.88;;;19.20;99.90;;;;;;5047319;28;20045;-84
2022/08/21 07:18:43;;;;;;;8.27;3.15;;;18.90;99.90;;;;;;5043738;28;20041;-84
2022/08/21 07:21:09;;;;;;;10.45;3.08;;;19.80;99.90;;;;;;5027080;28;20041;-82
2022/08/21 07:23:42;;;;;;;6.32;2.55;;;19.20;99.90;;;;;;5024519;28;20115;-78
2022/08/21 07:26:08;;;;;;;9.50;3.70;;;19.00;99.90;;;;;;5037213;28;20045;-83
2022/08/21 07:28:34;;;;;;;13.90;3.65;;;18.90;99.90;;;;;;5045981;28;20099;-84
2022/08/21 07:31:02;;;;;;;12.73;4.15;;;18.80;99.90;;;;;;5046307;28;20045;-83
2022/08/21 07:33:29;;;;;;;5.75;3.45;;;18.70;99.90;;;;;;5044069;28;20045;-85
2022/08/21 07:35:56;;;;;;;13.10;5.90;;;18.60;99.90;;;;;;5044308;28;20474;-86
2022/08/21 07:38:22;;;;;;;9.43;3.30;;;18.50;99.90;;;;;;5029834;28;20125;-84
2022/08/21 07:40:49;;;;;;;15.68;3.40;;;18.50;99.90;;;;;;5031664;28;20042;-82
2022/08/21 07:43:17;;;;;;;7.80;3.15;;;18.70;99.90;;;;;;5047609;28;20057;-82
2022/08/21 07:45:44;;;;;;;12.27;3.25;;;19.00;99.90;;;;;;5048789;28;20114;-82
2022/08/21 07:48:10;;;;;;;8.10;3.65;;;19.00;99.90;;;;;;5050355;28;20039;-82
2022/08/21 07:50:37;;;;;;;17.42;4.40;;;19.00;99.90;;;;;;5050358;28;20061;-83
2022/08/21 07:53:03;;;;;;;10.32;3.80;;;19.00;99.90;;;;;;5049297;28;20089;-82
2022/08/21 07:55:29;;;;;;;5.75;2.88;;;18.90;99.90;;;;;;5047162;28;20037;-84
2022/08/21 07:57:55;;;;;;;11.85;4.22;;;19.20;99.90;;;;;;5047523;28;20060;-81
2022/08/21 08:00:23;;;;;;;12.70;3.78;;;19.30;99.90;;;;;;5047889;28;20072;-78
2022/08/21 08:02:50;;;;;;;8.70;3.20;;;19.60;99.90;;;;;;5042588;28;20033;-84
2022/08/21 08:05:18;;;;;;;13.63;4.10;;;19.60;99.90;;;;;;5044357;28;20049;-82
2022/08/21 08:07:44;;;;;;;11.52;3.92;;;19.80;99.90;;;;;;5035871;28;20064;-82
2022/08/21 08:10:10;;;;;;;13.40;4.18;;;19.90;99.90;;;;;;5037467;28;20041;-83
2022/08/21 08:12:38;;;;;;;9.40;2.50;;;20.00;99.90;;;;;;5046514;28;20041;-84
2022/08/21 08:15:06;;;;;;;16.33;3.45;;;20.00;99.90;;;;;;5041798;28;20044;-84
2022/08/21 08:17:32;;;;;;;8.98;2.75;;;20.10;99.90;;;;;;5025179;28;20048;-84
2022/08/21 08:20:00;;;;;;;8.73;2.83;;;20.20;99.90;;;;;;5046262;28;20045;-79
2022/08/21 08:22:26;;;;;;;13.35;3.22;;;20.20;99.90;;;;;;5043656;28;20080;-84
2022/08/21 08:24:53;;;;;;;10.05;3.20;;;20.30;99.90;;;;;;5048588;28;20072;-83
2022/08/21 08:27:19;;;;;;;12.88;4.80;;;20.40;99.90;;;;;;5047354;28;20045;-84
2022/08/21 08:29:45;;;;;;;9.02;2.97;;;20.50;99.90;;;;;;5030112;28;20045;-78
2022/08/21 08:32:11;;;;;;;11.63;3.17;;;20.50;99.90;;;;;;5044439;28;20052;-82
2022/08/21 08:34:38;;;;;;;13.35;4.38;;;20.70;99.90;;;;;;5037609;28;20041;-84
2022/08/21 08:37:09;;;;;;;8.07;3.78;;;20.70;99.90;;;;;;5028789;28;20048;-75
2022/08/21 08:39:34;;;;;;;;;;;20.80;99.90;;;;;;5028268;28;20056;-81
2022/08/21 08:42:13;;;;;;;10.48;4.07;;;20.80;99.90;;;;;;5045505;28;19920;-82
2022/08/21 08:44:44;;;;;;;10.70;3.20;;;20.90;99.90;;;;;;5047473;28;20565;-82
2022/08/21 08:47:16;;;;;;;15.20;4.38;;;20.90;99.90;;;;;;5047620;28;20045;-81
2022/08/21 08:50:08;;;;;;;8.68;2.75;;;20.80;99.90;;;;;;5034721;28;20055;-82
2022/08/21 08:52:40;;;;;;;9.75;3.50;;;21.00;99.90;;;;;;5039253;28;20044;-83
2022/08/21 08:55:20;;;;;;;16.65;4.72;;;21.40;99.90;;;;;;5040099;28;20050;-82
2022/08/21 08:57:48;;;;;;;11.77;3.20;;;21.60;99.90;;;;;;5039913;28;20073;-83
2022/08/21 09:00:18;;;;;;;10.38;3.13;;;21.60;99.90;;;;;;5047356;28;20040;-82
2022/08/21 09:02:46;;;;;;;13.05;3.58;;;21.60;99.90;;;;;;5044957;28;20651;-84
2022/08/21 09:05:45;;;;;;;7.35;2.95;;;21.80;99.90;;;;;;4993145;28;20425;-84
2022/08/21 09:08:39;;;;;;;15.20;2.83;;;22.00;99.90;;;;;;5045584;28;20049;-84
2022/08/21 09:11:32;;;;;;;9.95;2.60;;;22.00;99.90;;;;;;5027247;28;20086;-80
2022/08/21 09:14:04;;;;;;;7.50;2.78;;;21.90;99.90;;;;;;5025008;28;20118;-82
2022/08/21 09:17:07;;;;;;;10.07;3.17;;;21.50;99.90;;;;;;5042643;28;20443;-82
2022/08/21 09:19:48;;;;;;;14.18;2.88;;;21.40;99.90;;;;;;5045164;28;20055;-80
2022/08/21 09:22:17;;;;;;;13.43;3.10;;;21.40;99.90;;;;;;5045178;28;20376;-81
2022/08/21 09:24:56;;;;;;;12.25;2.47;;;21.20;99.90;;;;;;5045811;28;20100;-81
2022/08/21 09:27:22;;;;;;;14.02;2.70;;;21.20;99.90;;;;;;5046174;28;20041;-81
2022/08/21 09:29:51;;;;;;;12.57;3.65;;;21.30;99.90;;;;;;5046878;28;21984;-81
2022/08/21 09:32:22;;;;;;;10.50;2.42;;;21.40;99.90;;;;;;5045191;28;20055;-80
2022/08/21 09:35:10;;;;;;;8.90;2.90;;;21.30;99.90;;;;;;5047200;28;20132;-80
2022/08/21 09:37:47;;;;;;;5.43;2.00;;;21.20;99.90;;;;;;5039544;28;20407;-81
2022/08/21 09:40:38;;;;;;;10.43;3.70;;;21.40;99.90;;;;;;5037081;28;20128;-80
2022/08/21 09:43:17;;;;;;;11.77;2.67;;;21.70;99.90;;;;;;5045679;28;20175;-82
2022/08/21 09:45:45;;;;;;;8.43;2.65;;;21.80;99.90;;;;;;5028577;28;20051;-82
2022/08/21 09:48:25;;;;;;;10.48;3.42;;;22.30;99.90;;;;;;5044285;28;20067;-82
2022/08/21 09:50:52;;;;;;;6.65;1.77;;;22.80;99.90;;;;;;5044860;28;20041;-80
2022/08/21 09:53:25;;;;;;;9.73;2.08;;;23.10;99.90;;;;;;5042884;28;20049;-81
2022/08/21 09:58:46;;;;;;;10.27;2.30;;;23.20;99.90;;;;;;5039237;28;20870;-82
2022/08/21 10:01:15;;;;;;;9.95;3.22;;;22.60;99.90;;;;;;5040184;28;20488;-78
2022/08/21 10:03:41;;;;;;;5.75;1.92;;;22.20;99.90;;;;;;5043808;28;20605;-82
2022/08/21 10:06:10;;;;;;;11.07;2.28;;;21.90;99.90;;;;;;5038852;28;20468;-80
2022/08/21 10:08:38;;;;;;;13.15;2.38;;;21.70;99.90;;;;;;5045232;28;20470;-82
2022/08/21 10:11:10;;;;;;;8.15;2.28;;;21.90;99.90;;;;;;5042755;28;20033;-83
2022/08/21 10:13:54;;;;;;;7.50;2.28;;;22.40;99.90;;;;;;5045698;28;20045;-81
2022/08/21 10:16:48;;;;;;;5.95;1.80;;;22.20;99.90;;;;;;5045465;28;20174;-83
2022/08/21 10:19:46;;;;;;;6.25;2.17;;;22.00;99.90;;;;;;5038089;28;20607;-80
2022/08/21 10:22:19;;;;;;;8.10;2.03;;;21.80;99.90;;;;;;5043619;28;20044;-83
2022/08/21 10:24:54;;;;;;;9.45;2.70;;;21.60;99.90;;;;;;5030402;28;20588;-83
2022/08/21 10:27:37;;;;;;;7.32;2.35;;;21.50;99.90;;;;;;5043441;28;20114;-82
2022/08/21 10:30:25;;;;;;;7.82;1.88;;;21.40;99.90;;;;;;5040467;28;20063;-82
2022/08/21 10:33:03;;;;;;;11.60;2.67;;;21.30;99.90;;;;;;5011808;28;20079;-80
2022/08/21 10:35:58;;;;;;;9.82;2.25;;;21.20;99.90;;;;;;5041648;28;20419;-81
2022/08/21 10:38:43;;;;;;;9.43;2.13;;;21.60;99.90;;;;;;5044686;28;20095;-82
2022/08/21 10:41:45;;;;;;;12.10;3.28;;;22.40;99.90;;;;;;5042590;28;20456;-80
2022/08/21 10:44:29;;;;;;;7.15;2.03;;;22.80;99.90;;;;;;5007156;28;20075;-81
2022/08/21 10:47:01;;;;;;;11.27;3.53;;;23.00;99.90;;;;;;5044944;28;20137;-81
2022/08/21 10:49:53;;;;;;;6.53;2.53;;;23.20;99.90;;;;;;5026627;28;20102;-78
2022/08/21 10:52:22;;;;;;;6.80;1.92;;;22.90;99.90;;;;;;5032810;28;20033;-81
2022/08/21 10:54:53;;;;;;;13.23;2.65;;;22.40;99.90;;;;;;5041686;28;20053;-79
2022/08/21 10:57:32;;;;;;;6.88;2.65;;;22.50;99.90;;;;;;5042908;28;20557;-79
2022/08/21 11:00:29;;;;;;;17.10;3.00;;;22.80;99.90;;;;;;5045042;28;20037;-80
2022/08/21 11:03:18;;;;;;;8.52;3.00;;;23.10;99.90;;;;;;5024357;28;20065;-79
2022/08/21 11:05:51;;;;;;;8.23;1.80;;;23.50;99.90;;;;;;5044730;28;20041;-77
2022/08/21 11:08:46;;;;;;;12.85;3.20;;;23.40;99.90;;;;;;5043895;28;20047;-79
2022/08/21 11:11:31;;;;;;;8.40;2.28;;;23.00;99.90;;;;;;5043106;28;20110;-79
2022/08/21 11:14:33;;;;;;;7.78;1.73;;;22.70;99.90;;;;;;5010427;28;20064;-79
2022/08/21 11:17:09;;;;;;;10.55;2.03;;;22.60;99.90;;;;;;5028666;28;20052;-79
2022/08/21 11:19:58;;;;;;;9.32;2.15;;;22.70;99.90;;;;;;5024708;28;20567;-79
2022/08/21 11:22:35;;;;;;;9.00;2.72;;;23.20;99.90;;;;;;5048046;28;20410;-79
2022/08/21 11:25:26;;;;;;;10.45;3.22;;;23.50;99.90;;;;;;5047464;28;20045;-78
2022/08/21 11:28:15;;;;;;;9.70;2.17;;;23.50;99.90;;;;;;5047797;28;20041;-79
2022/08/21 11:30:57;;;;;;;6.07;1.83;;;23.30;99.90;;;;;;5047839;28;20084;-80
2022/08/21 11:33:50;;;;;;;5.13;1.60;;;23.20;99.90;;;;;;5046541;28;20514;-80
2022/08/21 11:37:04;;;;;;;6.93;2.03;;;22.90;99.90;;;;;;5047984;28;20040;-79
2022/08/21 11:39:45;;;;;;;5.70;1.20;;;22.80;99.90;;;;;;4946571;29;20123;-79
2022/08/21 11:42:24;;;;;;;6.85;2.60;;;22.60;99.90;;;;;;4946564;29;20067;-81
2022/08/21 11:45:17;;;;;;;6.00;1.77;;;22.40;99.90;;;;;;5020411;28;20128;-79
2022/08/21 11:48:06;;;;;;;5.57;1.65;;;22.10;99.90;;;;;;5046656;28;20045;-79
2022/08/21 11:50:32;;;;;;;3.58;1.48;;;21.90;99.90;;;;;;5048433;28;20136;-80
2022/08/21 11:53:16;;;;;;;4.90;1.58;;;21.80;99.90;;;;;;5047056;28;20088;-79
2022/08/21 11:55:56;;;;;;;2.72;1.00;;;21.80;99.90;;;;;;5046808;28;20583;-79
2022/08/21 11:58:51;;;;;;;4.85;1.20;;;21.70;99.90;;;;;;5047831;28;20083;-79
2022/08/21 12:01:22;;;;;;;4.50;1.65;;;21.80;99.90;;;;;;5045380;28;20045;-82
2022/08/21 12:04:06;;;;;;;11.25;3.00;;;21.90;99.90;;;;;;5030456;28;20048;-80
2022/08/21 12:06:35;;;;;;;3.42;1.08;;;21.90;99.90;;;;;;5048029;28;20130;-80
2022/08/21 12:09:23;;;;;;;7.57;1.87;;;22.20;99.90;;;;;;5017218;28;20089;-81
2022/08/21 12:12:22;;;;;;;5.55;1.30;;;22.30;99.90;;;;;;5021357;28;20307;-78
2022/08/21 12:14:51;;;;;;;12.90;3.13;;;22.40;99.90;;;;;;5039169;28;20731;-79
2022/08/21 12:17:34;;;;;;;10.52;3.47;;;22.60;99.90;;;;;;5047353;28;20045;-79
2022/08/21 12:20:16;;;;;;;6.13;1.35;;;23.00;99.90;;;;;;5028969;28;20052;-78
2022/08/21 12:22:49;;;;;;;5.53;2.15;;;22.90;99.90;;;;;;5024778;28;20040;-79
2022/08/21 12:25:18;;;;;;;5.03;1.25;;;22.60;99.90;;;;;;5043925;28;20044;-76
2022/08/21 12:27:51;;;;;;;5.32;1.42;;;22.70;99.90;;;;;;5048136;28;20045;-77
2022/08/21 12:30:26;;;;;;;7.13;1.83;;;22.60;99.90;;;;;;5029329;28;20052;-78
2022/08/21 12:33:01;;;;;;;4.93;1.65;;;22.50;99.90;;;;;;5028430;28;20049;-79
2022/08/21 12:35:43;;;;;;;4.97;1.33;;;22.50;99.90;;;;;;5046088;28;20075;-77
2022/08/21 12:38:48;;;;;;;3.55;1.23;;;22.40;99.90;;;;;;5046765;28;20461;-78
2022/08/21 12:41:22;;;;;;;5.40;1.73;;;22.40;99.90;;;;;;5028018;28;20057;-78
2022/08/21 12:43:56;;;;;;;4.35;1.60;;;22.30;99.90;;;;;;5012465;28;20057;-79
2022/08/21 12:46:37;;;;;;;4.40;1.05;;;22.20;99.90;;;;;;5046308;28;20124;-80
2022/08/21 12:49:16;;;;;;;5.05;1.13;;;22.30;99.90;;;;;;5028895;28;20509;-79
2022/08/21 12:52:14;;;;;;;5.38;1.40;;;22.50;99.90;;;;;;5047695;28;20142;-78
2022/08/21 12:54:43;;;;;;;7.32;1.27;;;22.50;99.90;;;;;;5013773;28;20060;-79
2022/08/21 12:57:23;;;;;;;8.63;2.80;;;22.70;99.90;;;;;;5027616;28;20041;-80
2022/08/21 12:59:56;;;;;;;5.65;1.65;;;22.60;99.90;;;;;;5046978;28;20469;-78
2022/08/21 13:02:28;;;;;;;5.38;1.75;;;22.50;99.90;;;;;;5045585;28;20037;-78
2022/08/21 13:04:56;;;;;;;5.82;1.67;;;22.50;99.90;;;;;;5047070;28;20343;-76